Port Sheldon, MI

10:07 PM EDT on May 26, 2015 (GMT -0400)
Sheldon Dunes | | Change Station
CLOSE
Current Station
Personal Weather Station
Location: West Olive, MI
Elevation: 646 ft
Nearby Weather Stations

Elev 646 ft 42.94 °N, 86.21 °W | Updated 1 minute ago

Overcast
Overcast
60.3 °F
Feels Like 60.3 °F
N
3.8
Wind Variable Wind from South
Gusts 4.5 mph

Today
High -- | Low -- °F
--% Chance of Precip.
Yesterday
High -- | Low -- °F
Precip. -- in
6:12 AM 9:11 PM
Waxing Gibbous, 63% visible
Pressure 29.82 in
Visibility 10.0 miles
Clouds Few 3700 ft
Few 4700 ft
Scattered Clouds 7000 ft
Dew Point 58 °F
Humidity 91%
Rainfall 0.43 in
Snow Depth Not available.
UV 0 out of 12
Pollen 8.20 out of 12
Air Quality Not available.
Flu Activity Sporadic
METAR KBIV 270153Z AUTO 22012G19KT 10SM FEW037 FEW047 SCT070 20/15 A2982 RMK AO2 SLP096 T02000150

More Conditions Fewer Conditions

Pressure 29.82 in
Visibility 10.0 miles
Clouds Few 3700 ft
Few 4700 ft
Scattered Clouds 7000 ft
Dew Point 58 °F
Humidity 91%
Rainfall 0.43 in
Snow Depth Not available.
UV 0 out of 12
Pollen 8.20 out of 12
Air Quality Not available.
Flu Activity Sporadic
METAR KBIV 270153Z AUTO 22012G19KT 10SM FEW037 FEW047 SCT070 20/15 A2982 RMK AO2 SLP096 T02000150

More Conditions Fewer Conditions

10-Day Weather Forecast

Almanac

Astronomy

May. 26, 2015 Rise Set
Actual Time
Civil Twilight
Nautical Twilight
Astronomical Twilight
Moon
Length of Visible Light
Length of Day
Tomorrow will be .
, % of the Moon is Illuminated

Today's Extremes

State Highs State Lows

Community

WunderPhotos

Upload Photos

1,824,558 photos uploaded!

WunderBlogs® & News

Nearby

Air Quality

  Air Quality AQ Index Pollutant
Not available.

Snow Depth

Station Depth Elevation

Earthquake Activity

City Distance Mag. Time & Date
Minimum magnitude displayed is 2.5.

Coastal Water Temperatures

Place Temperature

Stations

Nearby Weather Stations

Station Location Temp. Windchill Dew Point Humidity Wind Precip. Elev Updated Type